Skip Navigation LinksHome page > Weather > Current weather Skip Navigation Links

Current Weather

General Mitchell International, Milwaukee

For information only: do not use for flight planning or navigation.
Latest weather
Observation time Tuesday, October 19, 2021 2:52 PM CDT
Local time Tuesday, October 19, 2021 3:39 PM CDT
Flight conditions Visual Meteorological Conditions
Winds
Wind direction Southwest (230°)
Wind speed 17 mph
Wind gusting to 25 mph
Visibility 10 mi.
Sky condition
Ceiling unlimited
Cloud layer few clouds 8,000 ft.
Cloud layer scattered clouds 20,000 ft.
Cloud layer scattered clouds 25,000 ft.
Temperature 74°F
Dewpoint 44°F
Altimeter 30.03 in.Hg
Derived measurements
Relative humidity 34%
Density altitude 1708 ft.
Sea-level pressure 30.02 in.Hg
Remarks
Automated weather observing station with precipitation discriminator.
METAR KMKE 191952Z 23015G22KT 10SM FEW080 SCT200 SCT250 23/07 A3003 RMK AO2 SLP167 T02330067

Settings

Location code

InnerDrive.Weather 4.0.6770.0 Release CLR 4.0.30319.42000
Copyright ©2018 Inner Drive Technology. All rights reserved. Portions Copyright ©1986-2018 David Braverman.

Find weather

Site navigation


Skip Navigation Links

Place info

Page info

PayPal - The safer, easier way to pay online!

Return home.

Copyright ©2021 Inner Drive Technology. Purveyors of fine, hand-crafted computer software. Page printed 2021-10-19T20:39:38 UTC.